Bookmark and Share
Track history (hours):
 

First I

Last reported at 2014-Apr-15 11:34 UTC. Time now 2014-Apr-19 22:11 UTC.
Position N 38°22' E 121°28'.

Length 190 m; draft 6.7 m.

MMSI: 370317000.

NotesDate/timePositionNaut miles runAvg speedWind from/ knotsBaromVisibWave heightAir tempDewpointWater temp
2014-Apr-15 11:34N 38°22' E 121°28'1212.1
2014-Apr-15 10:32N 38°15' E 121°41'1212.3
2014-Apr-15 09:34N 38°09' E 121°54'1312.7
2014-Apr-15 08:33N 38°02' E 122°08'1312.8
2014-Apr-15 07:34N 37°56' E 122°22'57 9.5
2014-Apr-15 01:33N 37°06' E 122°56'1111.5
2014-Apr-15 00:33N 36°54' E 122°55'5212.9
2014-Apr-14 20:32N 36°02' E 122°55'14513.1
2014-Apr-14 09:31N 35°18' E 120°05'1313.0
2014-Apr-14 08:33N 35°20' E 119°50'1010.0
2014-Apr-14 07:33N 35°19' E 119°37'5 5.0
2014-Apr-14 06:30N 35°21' E 119°32'0 0.0
2014-Apr-14 05:30N 35°21' E 119°32'0 0.0
2014-Apr-13 22:24N 35°21' E 119°32'0 0.0
2014-Apr-13 21:30N 35°21' E 119°32'0 0.0
2014-Apr-13 20:24N 35°21' E 119°32'0 0.0
2014-Apr-13 19:24N 35°21' E 119°32'0 0.0
2014-Apr-13 18:30N 35°21' E 119°32'0 0.0
2014-Apr-13 17:30N 35°21' E 119°32'0 0.0
2014-Apr-13 16:30N 35°21' E 119°32'0 0.0
2014-Apr-13 15:30N 35°21' E 119°32'0 0.0
2014-Apr-13 14:24N 35°21' E 119°32'0 0.0
2014-Apr-13 13:30N 35°21' E 119°32'0 0.0
2014-Apr-13 12:30N 35°21' E 119°32'0 0.0
2014-Apr-13 11:18N 35°21' E 119°32'0 0.0
2014-Apr-13 10:30N 35°21' E 119°32'0 0.0
2014-Apr-13 09:24N 35°21' E 119°32'0 0.0
2014-Apr-13 08:06N 35°21' E 119°32'0 0.0
2014-Apr-13 07:30N 35°21' E 119°32'0 0.0
2014-Apr-13 06:30N 35°21' E 119°32'0 0.0
2014-Apr-13 05:30N 35°21' E 119°32'0 0.0
2014-Apr-13 04:24N 35°21' E 119°32'0 0.0
2014-Apr-13 03:30N 35°21' E 119°32'0 0.0
2014-Apr-13 02:24N 35°21' E 119°32'0 0.0
2014-Apr-13 01:30N 35°21' E 119°32'0 0.0
2014-Apr-13 00:24N 35°21' E 119°32'0 0.0
2014-Apr-12 23:30N 35°21' E 119°32'0 0.0
2014-Apr-12 22:24N 35°21' E 119°32'0 0.0
2014-Apr-12 21:18N 35°21' E 119°32'0 0.0
2014-Apr-12 20:24N 35°21' E 119°32'0 0.0
2014-Apr-12 19:30N 35°21' E 119°32'0 0.0
2014-Apr-12 18:30N 35°21' E 119°32'0 0.0
2014-Apr-12 17:30N 35°21' E 119°32'0 0.0
2014-Apr-12 16:18N 35°21' E 119°32'0 0.0
2014-Apr-12 15:30N 35°21' E 119°32'2 2.2
2014-Apr-12 14:34N 35°20' E 119°34'4 3.1
2014-Apr-12 13:10N 35°19' E 119°39'0 0.0
2014-Apr-12 12:16N 35°19' E 119°39'0 0.1
2014-Apr-12 11:28N 35°19' E 119°39'0 0.5
2014-Apr-12 10:33N 35°19' E 119°39'3 2.8
2014-Apr-12 09:22N 35°18' E 119°42'0 0.0
2014-Apr-12 08:10N 35°18' E 119°42'0 0.1
2014-Apr-12 07:28N 35°18' E 119°42'0 0.0
2014-Apr-12 05:15N 35°18' E 119°42'0 0.0
2014-Apr-12 04:33N 35°18' E 119°42'0 0.0
2014-Apr-12 03:03N 35°18' E 119°42'0 0.0
2014-Apr-12 02:03N 35°18' E 119°42'0 0.0
2014-Apr-12 01:33N 35°18' E 119°42'0 0.1
2014-Apr-12 00:33N 35°18' E 119°42'0 0.1
2014-Apr-11 23:33N 35°18' E 119°42'0 0.1
2014-Apr-11 22:33N 35°18' E 119°42'0 0.0
2014-Apr-11 21:33N 35°18' E 119°42'0 0.0
2014-Apr-11 20:33N 35°18' E 119°42'0 0.0
2014-Apr-11 19:21N 35°18' E 119°42'0 0.0
2014-Apr-11 18:33N 35°18' E 119°42'0 0.0
2014-Apr-11 17:33N 35°18' E 119°42'0 0.0
2014-Apr-11 16:15N 35°18' E 119°42'0 0.1
2014-Apr-11 15:33N 35°18' E 119°42'0 0.1
2014-Apr-11 14:33N 35°18' E 119°42'0 0.0
2014-Apr-11 13:33N 35°18' E 119°42'0 0.0
2014-Apr-11 12:33N 35°18' E 119°42'0 0.1
2014-Apr-11 11:27N 35°18' E 119°42'0 0.1
2014-Apr-11 10:33N 35°18' E 119°42'0 0.0
2014-Apr-11 08:27N 35°18' E 119°42'0 0.0
2014-Apr-11 07:27N 35°18' E 119°42'0 0.0
2014-Apr-11 06:27N 35°18' E 119°42'0 0.0
2014-Apr-11 05:33N 35°18' E 119°42'0 0.0
2014-Apr-11 04:27N 35°18' E 119°42'0 0.0
2014-Apr-11 03:33N 35°18' E 119°42'0 0.1
2014-Apr-11 02:33N 35°18' E 119°42'0 0.0
2014-Apr-11 01:27N 35°18' E 119°42'0 0.0
2014-Apr-11 00:33N 35°18' E 119°42'0 0.0
2014-Apr-10 23:33N 35°18' E 119°42'0 0.1
2014-Apr-10 22:33N 35°18' E 119°42'0 0.1
2014-Apr-10 21:33N 35°18' E 119°42'0 0.1
2014-Apr-10 20:33N 35°18' E 119°42'0 0.0
2014-Apr-10 19:33N 35°18' E 119°42'0 0.0
2014-Apr-10 18:33N 35°18' E 119°42'0 0.0
2014-Apr-10 17:33N 35°18' E 119°42'0 0.0
2014-Apr-10 16:33N 35°18' E 119°42'0 0.0
2014-Apr-10 15:33N 35°18' E 119°42'0 0.1
2014-Apr-10 14:33N 35°18' E 119°42'0 0.1
2014-Apr-10 13:33N 35°18' E 119°42'0 0.0
2014-Apr-10 12:33N 35°18' E 119°42'0 0.0
2014-Apr-10 11:33N 35°18' E 119°42'0 0.1
2014-Apr-10 10:33N 35°18' E 119°42'0 0.1
2014-Apr-10 09:33N 35°18' E 119°42'0 0.0
2014-Apr-10 08:33N 35°18' E 119°42'0 0.0
2014-Apr-10 07:27N 35°18' E 119°42'0 0.0
2014-Apr-10 06:33N 35°18' E 119°42'0 0.0
2014-Apr-10 05:33N 35°18' E 119°42'0 0.0
2014-Apr-10 04:33N 35°18' E 119°42'0 0.0
2014-Apr-10 03:33N 35°18' E 119°42'0 0.0
2014-Apr-10 02:21N 35°18' E 119°42'0 0.0
2014-Apr-10 01:33N 35°18' E 119°42'0 0.0
2014-Apr-10 00:33N 35°18' E 119°42'0 0.0
2014-Apr-09 23:33N 35°18' E 119°42'0 0.0
2014-Apr-09 22:33N 35°18' E 119°42'0 0.1
2014-Apr-09 21:29N 35°18' E 119°42'0 0.0
2014-Apr-09 20:29N 35°18' E 119°42'0 0.1
2014-Apr-09 19:29N 35°18' E 119°42'0 0.0
2014-Apr-09 18:23N 35°18' E 119°42'3 3.2
2014-Apr-09 17:34N 35°16' E 119°44'8 7.4
2014-Apr-09 16:33N 35°08' E 119°46'8 7.7
2014-Apr-09 15:33N 35°04' E 119°38'10 9.5
2014-Apr-09 14:33N 35°03' E 119°27'5 3.7
2014-Apr-09 13:16N 35°06' E 119°22'0 0.0
2014-Apr-09 12:28N 35°06' E 119°22'0 0.0
2014-Apr-09 11:28N 35°06' E 119°22'0 0.0
2014-Apr-09 10:28N 35°06' E 119°22'0 0.0
2014-Apr-09 09:28N 35°06' E 119°22'0 0.0
2014-Apr-09 08:28N 35°06' E 119°22'0 0.0
2014-Apr-09 07:28N 35°06' E 119°22'0 0.0
2014-Apr-09 06:28N 35°06' E 119°22'0 0.0
2014-Apr-09 05:28N 35°06' E 119°22'0 0.0
2014-Apr-09 04:22N 35°06' E 119°22'0 0.0
2014-Apr-09 03:16N 35°06' E 119°22'0 0.0
2014-Apr-09 02:22N 35°06' E 119°22'0 0.0
2014-Apr-09 01:28N 35°06' E 119°22'0 0.0
2014-Apr-09 00:28N 35°06' E 119°22'0 0.0
2014-Apr-08 23:28N 35°06' E 119°22'0 0.0
2014-Apr-08 22:28N 35°06' E 119°22'0 0.0
2014-Apr-08 21:16N 35°06' E 119°22'0 0.0
2014-Apr-08 20:16N 35°06' E 119°22'0 0.0
2014-Apr-08 19:28N 35°06' E 119°22'0 0.0
2014-Apr-08 18:28N 35°06' E 119°22'0 0.0
2014-Apr-08 17:22N 35°06' E 119°22'0 0.0
2014-Apr-08 16:28N 35°06' E 119°22'0 0.0
2014-Apr-08 15:16N 35°06' E 119°22'0 0.0
2014-Apr-08 12:15N 35°06' E 119°22'0 0.0
2014-Apr-08 10:09N 35°06' E 119°22'0 0.0
2014-Apr-08 09:21N 35°06' E 119°22'0 0.0
2014-Apr-08 07:21N 35°06' E 119°22'0 0.0
2014-Apr-08 06:33N 35°06' E 119°22'0 0.0
2014-Apr-08 05:33N 35°06' E 119°22'0 0.0
2014-Apr-08 02:27N 35°06' E 119°22'0 0.0
2014-Apr-08 01:21N 35°06' E 119°22'0 0.0
2014-Apr-08 00:09N 35°06' E 119°22'0 0.0
2014-Apr-07 22:33N 35°06' E 119°22'0 0.0
2014-Apr-07 20:27N 35°06' E 119°22'0 0.0
2014-Apr-07 19:33N 35°06' E 119°22'0 0.0
2014-Apr-07 17:21N 35°06' E 119°22'0 0.0
2014-Apr-07 16:27N 35°06' E 119°22'0 0.0
2014-Apr-07 15:33N 35°06' E 119°22'0 0.0
2014-Apr-07 14:15N 35°06' E 119°22'0 0.0
2014-Apr-07 13:21N 35°06' E 119°22'0 0.0
2014-Apr-07 12:15N 35°06' E 119°22'0 0.0
2014-Apr-07 11:21N 35°06' E 119°22'0 0.0
2014-Apr-07 10:27N 35°06' E 119°22'0 0.0
2014-Apr-07 09:09N 35°06' E 119°22'0 0.0
2014-Apr-07 08:28N 35°06' E 119°22'0 0.0
2014-Apr-07 06:21N 35°06' E 119°22'0 0.0
2014-Apr-07 03:28N 35°06' E 119°22'0 0.0
2014-Apr-07 02:34N 35°06' E 119°22'0 0.0
2014-Apr-07 01:28N 35°06' E 119°22'0 0.0
2014-Apr-07 00:34N 35°06' E 119°22'0 0.0
2014-Apr-06 23:34N 35°06' E 119°22'0 0.0
2014-Apr-06 22:16N 35°06' E 119°22'0 0.0
2014-Apr-06 20:16N 35°06' E 119°22'0 0.0
2014-Apr-06 18:10N 35°06' E 119°22'0 0.0
2014-Apr-06 17:22N 35°06' E 119°22'0 0.0
2014-Apr-06 16:28N 35°06' E 119°22'0 0.0
2014-Apr-06 15:28N 35°06' E 119°22'0 0.0
2014-Apr-06 14:04N 35°06' E 119°22'0 0.0
2014-Apr-06 13:16N 35°06' E 119°22'0 0.0
2014-Apr-06 12:32N 35°06' E 119°22'5 5.0
2014-Apr-06 11:33N 35°03' E 119°27'7 7.0
2014-Apr-06 10:33N 35°03' E 119°35'10 9.6
2014-Apr-06 09:33N 35°05' E 119°47'0 0.4
2014-Apr-06 08:33N 35°05' E 119°47'0 0.0
2014-Apr-06 07:15N 35°05' E 119°47'0 0.0
2014-Apr-06 06:33N 35°05' E 119°47'0 0.1
2014-Apr-06 05:33N 35°05' E 119°47'0 0.0
2014-Apr-06 04:33N 35°05' E 119°47'0 0.0
2014-Apr-06 03:33N 35°05' E 119°47'0 0.1
2014-Apr-06 02:33N 35°05' E 119°47'0 0.1
2014-Apr-06 01:27N 35°05' E 119°47'0 0.1
2014-Apr-06 00:33N 35°05' E 119°47'0 0.1
2014-Apr-05 23:33N 35°05' E 119°47'0 0.1
2014-Apr-05 22:33N 35°05' E 119°47'0 0.1
2014-Apr-05 21:15N 35°05' E 119°47'0 0.1
2014-Apr-05 20:18N 35°05' E 119°47'0 0.0
2014-Apr-05 19:33N 35°05' E 119°47'0 0.0
2014-Apr-05 18:33N 35°05' E 119°47'0 0.0
2014-Apr-05 17:33N 35°05' E 119°47'0 0.2
2014-Apr-05 16:33N 35°05' E 119°47'5 5.0
2014-Apr-05 15:33N 35°02' E 119°52'1010.2
2014-Apr-05 14:32N 35°01' E 120°05'  

Dump ship's entire track history

sailing weather and tide predictions

First I — 3ESJ5 — position and weather